Time;durP1;ratioP1;P1;durP2;ratioP2;P2;SDS_P1;SDS_P2;PMS_P1;PMS_P2;Temp;Humidity;BMP_temperature;BMP_pressure;BME280_temperature;BME280_humidity;BME280_pressure;Samples;Min_cycle;Max_cycle;Signal;HPM_P1;HPM_P2
2023/07/11 00:00:06;;;;;;;5.65;3.80;;;;;;;23.91;46.68;99605.75;5031707;28;20033;-78
2023/07/11 00:02:32;;;;;;;5.22;4.45;;;;;;;23.92;46.87;99615.47;5014054;28;20494;-77
2023/07/11 00:04:59;;;;;;;4.70;4.13;;;;;;;24.02;46.76;99637.06;5031710;28;20032;-77
2023/07/11 00:07:25;;;;;;;4.65;4.00;;;;;;;23.77;47.11;99596.50;5031755;28;20028;-77
2023/07/11 00:09:50;;;;;;;4.55;4.13;;;;;;;23.58;46.95;99571.88;5031651;28;20399;-78
2023/07/11 00:12:16;;;;;;;5.55;4.38;;;;;;;23.70;47.19;99593.22;5013835;28;20036;-78
2023/07/11 00:14:42;;;;;;;4.93;4.40;;;;;;;23.90;47.29;99643.75;5031356;28;20026;-76
2023/07/11 00:17:07;;;;;;;5.40;4.90;;;;;;;23.99;47.54;99651.09;5031749;28;20024;-78
2023/07/11 00:19:55;;;;;;;4.47;4.10;;;;;;;24.22;47.88;99711.06;5031581;28;20022;-78
2023/07/11 00:22:22;;;;;;;4.38;4.05;;;;;;;23.94;47.45;99648.38;5031396;28;20025;-77
2023/07/11 00:24:49;;;;;;;5.28;4.28;;;;;;;24.25;47.29;99688.94;5031619;28;20025;-78
2023/07/11 00:27:17;;;;;;;5.15;4.63;;;;;;;24.01;47.57;99659.72;5013760;28;20104;-78
2023/07/11 00:29:43;;;;;;;6.13;4.30;;;;;;;23.86;47.47;99627.28;5031496;28;20480;-77
2023/07/11 00:32:08;;;;;;;4.70;4.20;;;;;;;24.22;47.78;99682.19;5031361;28;20025;-77
2023/07/11 00:34:34;;;;;;;4.55;4.15;;;;;;;23.72;47.66;99613.44;5031580;28;20029;-77
2023/07/11 00:37:00;;;;;;;6.93;4.28;;;;;;;24.20;47.79;99697.84;5013253;28;20075;-78
2023/07/11 00:39:28;;;;;;;4.90;4.50;;;;;;;24.22;47.69;99681.38;5030973;28;20422;-77
2023/07/11 00:41:53;;;;;;;4.95;4.10;;;;;;;23.93;47.39;99633.25;5030950;28;20037;-77
2023/07/11 00:44:19;;;;;;;4.80;4.30;;;;;;;24.19;47.41;99671.13;5031001;28;20029;-78
2023/07/11 00:46:44;;;;;;;5.03;4.32;;;;;;;24.22;47.43;99690.28;5030950;28;20505;-78
2023/07/11 00:49:13;;;;;;;4.60;4.20;;;;;;;24.23;47.19;99683.81;5013242;28;20020;-77
2023/07/11 00:51:48;;;;;;;4.72;4.32;;;;;;;24.09;47.34;99658.41;5013336;28;20026;-78
2023/07/11 00:54:17;;;;;;;5.88;4.50;;;;;;;24.16;46.99;99674.34;5031328;28;20029;-77
2023/07/11 00:56:45;;;;;;;5.05;4.50;;;;;;;24.23;47.40;99681.13;5031328;28;20049;-77
2023/07/11 00:59:14;;;;;;;5.28;4.55;;;;;;;24.27;47.35;99686.84;5030646;28;20049;-78
2023/07/11 01:01:40;;;;;;;4.65;4.00;;;;;;;23.88;47.23;99630.53;5031081;28;20108;-77
2023/07/11 01:04:06;;;;;;;8.05;4.35;;;;;;;24.05;47.02;99654.63;5031150;28;20112;-78
2023/07/11 01:06:32;;;;;;;4.88;4.43;;;;;;;24.15;46.84;99678.94;5033357;28;20114;-77
2023/07/11 01:09:00;;;;;;;5.70;4.20;;;;;;;24.40;47.19;99679.06;5034439;28;20024;-77
2023/07/11 01:11:28;;;;;;;5.78;4.35;;;;;;;24.18;47.13;99642.53;5034387;28;20235;-78
2023/07/11 01:13:54;;;;;;;7.57;5.18;;;;;;;24.38;47.64;99689.31;5034581;28;20075;-77
2023/07/11 01:16:20;;;;;;;7.18;4.55;;;;;;;24.20;47.68;99660.06;5034446;28;20029;-78
2023/07/11 01:18:45;;;;;;;5.43;4.80;;;;;;;24.20;48.31;99673.56;5034391;28;20025;-77
2023/07/11 01:21:29;;;;;;;5.60;4.97;;;;;;;23.69;48.83;99597.00;5034226;28;20063;-77
2023/07/11 01:23:54;;;;;;;8.80;5.03;;;;;;;23.63;48.48;99588.06;5034273;28;20109;-78
2023/07/11 01:26:20;;;;;;;6.95;4.57;;;;;;;23.90;48.75;99647.28;5034019;28;20064;-77
2023/07/11 01:28:45;;;;;;;5.47;4.97;;;;;;;23.99;48.88;99642.19;5033977;28;20398;-77
2023/07/11 01:31:11;;;;;;;4.90;4.47;;;;;;;24.05;48.69;99654.63;5034367;28;20029;-77
2023/07/11 01:33:36;;;;;;;5.30;4.80;;;;;;;23.40;48.89;99556.94;5034153;28;20017;-78
2023/07/11 01:36:02;;;;;;;5.45;4.95;;;;;;;23.97;49.24;99647.84;5034009;28;20495;-77
2023/07/11 01:38:28;;;;;;;5.65;5.15;;;;;;;23.85;49.03;99633.75;5033516;28;20080;-79
2023/07/11 01:40:53;;;;;;;5.45;4.88;;;;;;;23.57;49.25;99591.00;5033480;28;20109;-78
2023/07/11 01:43:19;;;;;;;5.80;4.75;;;;;;;23.72;49.24;99618.84;5033478;28;20031;-77
2023/07/11 01:45:45;;;;;;;5.47;4.97;;;;;;;24.07;49.16;99669.47;5033492;28;20032;-77
2023/07/11 01:48:10;;;;;;;5.28;4.85;;;;;;;24.01;49.39;99648.13;5033583;28;20417;-78
2023/07/11 01:50:36;;;;;;;8.77;5.22;;;;;;;23.74;49.51;99626.66;5015934;28;20036;-78
2023/07/11 01:53:02;;;;;;;5.53;4.70;;;;;;;23.31;49.48;99539.63;5033765;28;20025;-77
2023/07/11 01:55:27;;;;;;;8.40;5.20;;;;;;;23.77;49.21;99634.22;5033717;28;20564;-78
2023/07/11 01:57:53;;;;;;;9.18;5.22;;;;;;;23.51;49.38;99598.22;5033228;28;20048;-78
2023/07/11 02:00:19;;;;;;;7.75;5.07;;;;;;;24.00;49.65;99685.06;5015631;28;20499;-77
2023/07/11 02:02:45;;;;;;;8.05;4.90;;;;;;;23.80;49.71;99657.19;5033484;28;20018;-77
2023/07/11 02:05:10;;;;;;;7.60;5.22;;;;;;;23.94;49.78;99688.81;5033472;28;20410;-77
2023/07/11 02:07:35;;;;;;;8.23;5.10;;;;;;;23.94;49.95;99690.72;5033523;28;20039;-77
2023/07/11 02:10:01;;;;;;;9.35;4.93;;;;;;;23.40;49.93;99615.41;5033474;28;20376;-77
2023/07/11 02:12:26;;;;;;;10.07;5.55;;;;;;;23.91;49.93;99707.41;5015541;28;20036;-77
2023/07/11 02:14:52;;;;;;;8.70;4.93;;;;;;;22.98;49.86;99558.78;5015639;28;20021;-78
2023/07/11 02:17:17;;;;;;;10.65;6.22;;;;;;;23.83;50.26;99695.22;5033380;28;20017;-77
2023/07/11 02:19:46;;;;;;;10.75;5.72;;;;;;;23.82;50.11;99699.00;5033269;28;20549;-78
2023/07/11 02:22:12;;;;;;;11.50;5.50;;;;;;;23.80;50.04;99703.84;5033234;28;20036;-78
2023/07/11 02:24:39;;;;;;;11.45;5.28;;;;;;;23.76;50.01;99694.63;5015241;28;20017;-78
2023/07/11 02:27:06;;;;;;;9.73;5.43;;;;;;;23.73;50.30;99704.03;5032969;28;20083;-78
2023/07/11 02:29:31;;;;;;;8.77;5.20;;;;;;;23.72;50.45;99701.59;5033316;28;20025;-77
2023/07/11 02:31:57;;;;;;;11.02;6.28;;;;;;;23.68;50.39;99697.81;5033047;28;20034;-78
2023/07/11 02:34:22;;;;;;;9.07;5.93;;;;;;;23.43;50.17;99660.69;5033153;28;20076;-77
2023/07/11 02:36:48;;;;;;;10.43;6.22;;;;;;;23.66;50.36;99686.47;5032926;28;20079;-78
2023/07/11 02:39:14;;;;;;;10.20;5.78;;;;;;;23.00;50.43;99592.47;5032853;28;20021;-78
2023/07/11 02:41:40;;;;;;;7.18;5.65;;;;;;;23.13;50.34;99602.84;5032906;28;20509;-78
2023/07/11 02:44:06;;;;;;;9.15;5.75;;;;;;;23.62;50.38;99698.84;5032577;28;20056;-78
2023/07/11 02:46:31;;;;;;;9.90;5.95;;;;;;;23.02;50.59;99595.72;5032713;28;20025;-78
2023/07/11 02:48:57;;;;;;;10.20;5.70;;;;;;;23.22;50.30;99640.88;5032885;28;20457;-78
2023/07/11 02:51:23;;;;;;;10.75;6.00;;;;;;;23.26;50.73;99638.47;5032735;28;20029;-78
2023/07/11 02:53:49;;;;;;;11.15;6.43;;;;;;;23.35;50.81;99664.69;5032431;28;20028;-78
2023/07/11 02:56:15;;;;;;;18.73;5.82;;;;;;;23.14;51.06;99646.75;5032542;28;20100;-77
2023/07/11 02:58:40;;;;;;;8.98;5.95;;;;;;;23.45;51.19;99680.91;5032241;28;20038;-78
2023/07/11 03:01:06;;;;;;;7.75;6.15;;;;;;;22.87;51.14;99584.03;5032287;28;20053;-77
2023/07/11 03:03:31;;;;;;;10.05;6.60;;;;;;;23.55;50.92;99692.88;5032410;28;20025;-77
2023/07/11 03:05:57;;;;;;;11.05;5.82;;;;;;;23.56;50.86;99687.22;5032308;28;20505;-78
2023/07/11 03:08:23;;;;;;;8.35;6.10;;;;;;;23.23;50.87;99633.59;5032208;28;20024;-77
2023/07/11 03:13:33;;;;;;;5.93;5.32;;;;;;;23.28;50.90;99641.72;5032509;28;20029;-77
2023/07/11 03:16:03;;;;;;;11.05;6.60;;;;;;;23.22;50.79;99624.72;5032229;28;20014;-77
2023/07/11 03:18:29;;;;;;;10.90;5.65;;;;;;;23.46;50.84;99655.59;5032031;28;20028;-77
2023/07/11 03:20:57;;;;;;;12.05;8.02;;;;;;;23.68;50.80;99689.72;5032142;28;20104;-78
2023/07/11 03:23:23;;;;;;;10.07;6.60;;;;;;;23.36;50.84;99642.06;5031749;28;20025;-78
2023/07/11 03:25:48;;;;;;;11.25;6.30;;;;;;;23.41;50.92;99636.69;5031732;28;20048;-77
2023/07/11 03:28:15;;;;;;;9.63;5.85;;;;;;;23.77;50.96;99686.28;5031327;28;20021;-78
2023/07/11 03:30:40;;;;;;;10.32;5.80;;;;;;;23.66;50.34;99662.22;5031479;28;20418;-78
2023/07/11 03:33:05;;;;;;;8.00;6.00;;;;;;;23.36;50.13;99611.59;5013758;28;20025;-78
2023/07/11 03:35:32;;;;;;;9.35;6.53;;;;;;;23.83;49.83;99687.16;5031434;28;20021;-77
2023/07/11 03:37:57;;;;;;;8.52;5.88;;;;;;;23.61;49.60;99675.66;5031668;28;20017;-76
2023/07/11 03:40:24;;;;;;;9.15;5.43;;;;;;;23.26;49.82;99620.44;5031824;28;20075;-77
2023/07/11 03:42:49;;;;;;;9.38;5.80;;;;;;;23.48;49.95;99646.44;5032179;28;20104;-77
2023/07/11 03:45:15;;;;;;;9.10;5.65;;;;;;;23.42;49.62;99635.63;5032862;28;20540;-78
2023/07/11 03:47:40;;;;;;;7.82;6.32;;;;;;;23.63;49.52;99655.47;5032509;28;20025;-78
2023/07/11 03:50:06;;;;;;;13.23;6.90;;;;;;;23.52;49.75;99663.72;5031801;28;20089;-77
2023/07/11 03:52:32;;;;;;;9.80;6.18;;;;;;;23.48;49.51;99627.56;5014318;28;20048;-78
2023/07/11 03:54:57;;;;;;;11.13;6.40;;;;;;;23.71;49.60;99660.34;5031402;28;20029;-77
2023/07/11 03:57:23;;;;;;;11.35;6.57;;;;;;;23.79;49.73;99669.88;5031338;28;20025;-77
2023/07/11 03:59:48;;;;;;;10.18;6.22;;;;;;;23.65;49.75;99668.69;5031825;28;20084;-77
2023/07/11 04:02:14;;;;;;;7.40;6.03;;;;;;;23.46;49.63;99628.66;5032019;28;20033;-77
2023/07/11 04:04:40;;;;;;;11.20;6.50;;;;;;;23.60;49.70;99644.38;5031643;28;20473;-77
2023/07/11 04:07:07;;;;;;;13.20;6.68;;;;;;;23.34;49.69;99603.78;5031421;28;20029;-77
2023/07/11 04:09:32;;;;;;;10.02;6.43;;;;;;;23.40;49.57;99601.94;5031529;28;20118;-77
2023/07/11 04:11:58;;;;;;;9.30;6.60;;;;;;;23.18;49.85;99560.84;5031523;28;20108;-77
2023/07/11 04:14:42;;;;;;;11.45;6.63;;;;;;;24.03;50.05;99699.91;5031282;28;20064;-77
2023/07/11 04:17:07;;;;;;;8.40;6.43;;;;;;;24.06;49.95;99696.69;5031404;28;20041;-77
2023/07/11 04:19:32;;;;;;;11.98;6.75;;;;;;;23.72;49.93;99645.00;5013640;28;20029;-78
2023/07/11 04:21:58;;;;;;;11.35;6.40;;;;;;;23.95;49.96;99679.66;5031048;28;20064;-78
2023/07/11 04:24:23;;;;;;;10.95;7.10;;;;;;;24.15;49.70;99705.09;5031394;28;20083;-78
2023/07/11 04:26:49;;;;;;;9.65;6.50;;;;;;;23.94;49.92;99666.44;5031599;28;20025;-77
2023/07/11 04:29:14;;;;;;;13.32;6.85;;;;;;;23.93;49.75;99668.31;5013637;28;20024;-77
2023/07/11 04:31:39;;;;;;;10.65;6.88;;;;;;;24.21;49.80;99698.66;5031504;28;20112;-78
2023/07/11 04:34:05;;;;;;;9.73;6.70;;;;;;;23.77;49.96;99626.16;5031402;28;20037;-78
2023/07/11 04:36:31;;;;;;;15.32;7.55;;;;;;;24.32;49.68;99697.66;5031254;28;20478;-77
2023/07/11 04:38:57;;;;;;;12.95;6.70;;;;;;;23.83;49.57;99619.72;5031065;28;20029;-78
2023/07/11 04:41:22;;;;;;;12.77;6.57;;;;;;;23.74;49.56;99595.13;5015504;28;20032;-77
2023/07/11 04:43:48;;;;;;;11.88;7.05;;;;;;;24.49;49.31;99702.81;5017255;28;20410;-78
2023/07/11 04:46:13;;;;;;;13.35;7.20;;;;;;;24.55;49.64;99699.91;5034751;28;20109;-78
2023/07/11 04:48:38;;;;;;;11.00;6.60;;;;;;;24.26;49.29;99660.91;5034839;28;20022;-78
2023/07/11 04:51:07;;;;;;;10.07;6.20;;;;;;;24.60;47.91;99718.00;5016898;28;20087;-77
2023/07/11 04:53:33;;;;;;;7.45;5.65;;;;;;;24.51;47.50;99700.69;5034563;28;20477;-78
2023/07/11 04:56:04;;;;;;;6.95;6.25;;;;;;;24.33;47.37;99677.69;5016814;28;20025;-78
2023/07/11 04:58:30;;;;;;;8.02;5.75;;;;;;;24.73;47.48;99731.00;5034198;28;20084;-78
2023/07/11 05:01:09;;;;;;;9.45;5.95;;;;;;;24.66;47.08;99717.75;5034390;28;20029;-77
2023/07/11 05:03:34;;;;;;;7.00;5.93;;;;;;;24.76;46.97;99727.78;5034366;28;20084;-78
2023/07/11 05:06:02;;;;;;;5.95;5.35;;;;;;;24.77;46.68;99732.09;5034591;28;20033;-77
2023/07/11 05:08:28;;;;;;;6.00;5.35;;;;;;;24.35;46.94;99681.72;5034343;28;20104;-77
2023/07/11 05:11:01;;;;;;;7.07;6.05;;;;;;;24.57;46.95;99708.56;5034899;28;20108;-78
2023/07/11 05:13:26;;;;;;;7.85;5.78;;;;;;;24.74;47.32;99735.31;5034178;28;20490;-77
2023/07/11 05:16:08;;;;;;;8.73;5.80;;;;;;;24.49;47.29;99683.94;5016336;28;20087;-77
2023/07/11 05:18:40;;;;;;;8.30;6.63;;;;;;;24.83;47.54;99738.31;5034355;28;20040;-77
2023/07/11 05:21:08;;;;;;;7.10;6.22;;;;;;;23.74;47.69;99553.88;5034255;28;20091;-78
2023/07/11 05:23:34;;;;;;;7.07;6.13;;;;;;;24.59;47.55;99692.09;5034013;28;20037;-78
2023/07/11 05:26:00;;;;;;;7.97;6.47;;;;;;;24.98;47.40;99724.88;5033948;28;20103;-78
2023/07/11 05:28:25;;;;;;;12.15;7.88;;;;;;;25.03;47.33;99725.69;5016091;28;20104;-78
2023/07/11 05:30:52;;;;;;;10.63;7.18;;;;;;;24.55;47.58;99656.72;5033832;28;20053;-77
2023/07/11 05:33:17;;;;;;;9.15;6.28;;;;;;;24.79;47.48;99675.94;5033751;28;20458;-78
2023/07/11 05:36:05;;;;;;;6.93;6.18;;;;;;;24.90;46.91;99693.75;5033743;28;20036;-78
2023/07/11 05:38:31;;;;;;;9.05;5.75;;;;;;;24.95;46.38;99704.56;5033490;28;20034;-78
2023/07/11 05:40:56;;;;;;;7.03;6.38;;;;;;;25.28;46.04;99726.81;5015875;28;20403;-76
2023/07/11 05:43:22;;;;;;;7.57;6.80;;;;;;;24.86;45.72;99652.16;5032256;28;20104;-77
2023/07/11 05:45:48;;;;;;;6.82;6.10;;;;;;;25.38;45.84;99717.91;5033688;28;20055;-78
2023/07/11 05:48:13;;;;;;;7.32;6.60;;;;;;;25.47;45.85;99722.47;5028161;28;20477;-78
2023/07/11 05:50:39;;;;;;;8.30;6.68;;;;;;;25.40;45.46;99710.31;5014797;28;20034;-77
2023/07/11 05:53:04;;;;;;;12.25;9.25;;;;;;;25.73;45.75;99744.13;5025511;28;20525;-77
2023/07/11 05:55:29;;;;;;;10.68;7.95;;;;;;;25.80;45.59;99748.16;5033450;28;20021;-77
2023/07/11 05:57:55;;;;;;;8.63;7.60;;;;;;;25.52;45.58;99686.53;5032950;28;20499;-76
2023/07/11 06:00:20;;;;;;;9.20;6.32;;;;;;;25.93;45.50;99749.50;5033072;28;20087;-79
2023/07/11 06:02:46;;;;;;;8.52;5.45;;;;;;;25.56;44.74;99677.59;5015103;28;20033;-78
2023/07/11 06:05:11;;;;;;;8.80;5.80;;;;;;;25.64;44.25;99671.63;5032566;28;20033;-78
2023/07/11 06:07:38;;;;;;;6.18;5.10;;;;;;;25.78;44.10;99695.44;5024128;28;20040;-77
2023/07/11 06:10:03;;;;;;;8.45;5.30;;;;;;;25.98;43.73;99684.53;4995423;28;20109;-78
2023/07/11 06:12:29;;;;;;;8.95;5.55;;;;;;;25.73;43.57;99630.53;5021695;28;20033;-78
2023/07/11 06:14:54;;;;;;;5.03;4.53;;;;;;;26.41;43.15;99723.69;5022449;28;20116;-77
2023/07/11 06:17:20;;;;;;;9.00;6.05;;;;;;;26.04;42.76;99655.59;5013127;28;20426;-76
2023/07/11 06:19:45;;;;;;;7.97;5.78;;;;;;;26.25;42.50;99660.66;5022988;28;20026;-77
2023/07/11 06:22:12;;;;;;;9.52;6.93;;;;;;;26.07;42.01;99611.75;5032843;28;20061;-77
2023/07/11 06:24:38;;;;;;;6.63;5.90;;;;;;;26.42;41.94;99657.59;5032410;28;20037;-76
2023/07/11 06:27:06;;;;;;;9.77;7.88;;;;;;;26.57;41.55;99673.75;5033181;28;20034;-76
2023/07/11 06:29:31;;;;;;;7.90;5.50;;;;;;;26.58;41.66;99656.44;5004570;28;20571;-77
2023/07/11 06:31:57;;;;;;;9.77;8.20;;;;;;;26.50;41.56;99621.00;5030949;28;20120;-77
2023/07/11 06:34:24;;;;;;;7.07;6.35;;;;;;;26.91;41.26;99697.41;5032709;28;20108;-77
2023/07/11 06:36:49;;;;;;;6.20;5.57;;;;;;;26.90;40.97;99657.88;5031166;28;20108;-77
2023/07/11 06:39:15;;;;;;;7.85;6.15;;;;;;;27.17;40.82;99700.78;5032265;28;20494;-77
2023/07/11 06:41:40;;;;;;;7.05;4.75;;;;;;;26.68;40.72;99598.66;5033243;28;20029;-78
2023/07/11 06:44:09;;;;;;;7.63;6.13;;;;;;;27.08;40.53;99651.78;5015411;28;20703;-78
2023/07/11 06:46:35;;;;;;;6.32;5.00;;;;;;;26.91;40.36;99618.84;5032447;28;20478;-78
2023/07/11 06:49:01;;;;;;;6.85;6.15;;;;;;;27.62;39.99;99709.66;5032761;28;20100;-78
2023/07/11 06:51:28;;;;;;;9.50;6.85;;;;;;;27.26;39.79;99630.47;5032388;28;20051;-77
2023/07/11 06:53:54;;;;;;;7.40;5.38;;;;;;;27.46;39.62;99665.53;5030775;28;20040;-78
2023/07/11 06:56:20;;;;;;;7.38;5.72;;;;;;;27.82;39.29;99712.97;5029707;28;20108;-79
2023/07/11 06:58:47;;;;;;;6.82;6.07;;;;;;;27.88;38.92;99704.78;5029263;28;20049;-77
2023/07/11 07:01:12;;;;;;;6.40;5.80;;;;;;;27.91;38.74;99710.44;5031198;28;20029;-78
2023/07/11 07:03:38;;;;;;;7.13;5.00;;;;;;;27.32;38.67;99597.63;5031093;28;20090;-77
2023/07/11 07:06:10;;;;;;;6.80;5.28;;;;;;;28.08;38.75;99718.13;5030563;28;20021;-78
2023/07/11 07:08:36;;;;;;;10.07;5.80;;;;;;;27.79;38.52;99661.97;5031142;28;20025;-79
2023/07/11 07:11:02;;;;;;;8.05;5.13;;;;;;;27.79;38.25;99647.63;5027870;28;20091;-77
2023/07/11 07:13:27;;;;;;;7.85;6.35;;;;;;;27.79;37.99;99642.19;5024705;28;20079;-78
2023/07/11 07:15:56;;;;;;;9.65;7.80;;;;;;;28.27;38.00;99708.16;5028764;28;20025;-78
2023/07/11 07:18:23;;;;;;;6.28;5.38;;;;;;;27.70;37.73;99617.59;5031713;28;20021;-78
2023/07/11 07:20:50;;;;;;;8.55;5.07;;;;;;;28.25;38.04;99694.06;5030818;28;20060;-78
2023/07/11 07:23:15;;;;;;;9.65;6.47;;;;;;;28.31;37.52;99695.63;5023443;28;20017;-78
2023/07/11 07:25:49;;;;;;;7.82;5.22;;;;;;;28.24;37.66;99697.88;5031317;28;20434;-78
2023/07/11 07:28:14;;;;;;;8.60;4.82;;;;;;;28.27;37.13;99672.06;5010600;28;20127;-78
2023/07/11 07:30:44;;;;;;;6.53;5.70;;;;;;;27.92;37.27;99611.63;5013585;28;20125;-78
2023/07/11 07:33:10;;;;;;;9.88;6.47;;;;;;;28.62;37.38;99712.31;5017645;28;20139;-77
2023/07/11 07:35:35;;;;;;;9.25;5.88;;;;;;;28.33;37.25;99660.03;5013993;28;20447;-78
2023/07/11 07:38:00;;;;;;;6.80;6.10;;;;;;;28.50;37.26;99664.97;5031211;28;20033;-77
2023/07/11 07:40:26;;;;;;;6.85;6.03;;;;;;;28.53;37.17;99669.81;5029920;28;20098;-76
2023/07/11 07:42:51;;;;;;;7.85;5.80;;;;;;;28.76;37.02;99693.38;5030574;28;20240;-77
2023/07/11 07:45:16;;;;;;;10.10;8.07;;;;;;;28.92;36.64;99707.56;5030188;28;20104;-77
2023/07/11 07:47:42;;;;;;;9.82;7.20;;;;;;;28.84;36.67;99686.50;5030545;28;20081;-77
2023/07/11 07:50:08;;;;;;;7.07;6.30;;;;;;;28.65;36.75;99653.88;5029268;28;20053;-75
2023/07/11 07:52:34;;;;;;;7.93;7.15;;;;;;;28.82;36.38;99664.22;5030928;28;20032;-77
2023/07/11 07:54:59;;;;;;;9.80;6.10;;;;;;;28.72;36.05;99638.00;5031189;28;20030;-78
2023/07/11 07:57:25;;;;;;;8.13;6.38;;;;;;;28.88;35.64;99649.47;5029214;28;20033;-77
2023/07/11 07:59:50;;;;;;;7.70;6.88;;;;;;;29.06;35.97;99665.78;5011575;28;20064;-77
2023/07/11 08:02:16;;;;;;;6.57;5.85;;;;;;;29.14;36.01;99674.34;5013305;28;20087;-78
2023/07/11 08:04:47;;;;;;;12.32;8.50;;;;;;;29.20;35.75;99648.69;5030853;28;20025;-77
2023/07/11 08:07:12;;;;;;;;;;;;;;;29.36;35.67;99688.91;5013880;28;20038;-77
2023/07/11 08:09:38;;;;;;;7.22;5.45;;;;;;;29.51;35.68;99687.88;5013148;28;19963;-77
2023/07/11 08:16:12;;;;;;;9.82;5.75;;;;;;;29.71;33.66;99687.50;5032916;28;20091;-77
2023/07/11 08:19:04;;;;;;;11.50;5.90;;;;;;;29.81;34.77;99688.44;5017571;28;20038;-77
2023/07/11 08:21:30;;;;;;;8.85;5.70;;;;;;;29.89;34.76;99677.66;5033758;28;20494;-76
2023/07/11 08:23:55;;;;;;;9.48;5.82;;;;;;;29.69;34.37;99631.75;5033452;28;20029;-77
2023/07/11 08:26:22;;;;;;;8.38;6.38;;;;;;;29.73;34.49;99632.78;5034947;28;20029;-76
2023/07/11 08:29:21;;;;;;;6.22;5.57;;;;;;;30.17;34.03;99683.13;5035109;28;20030;-76
2023/07/11 08:31:47;;;;;;;6.47;5.40;;;;;;;30.00;34.06;99646.41;5034876;28;20029;-77
2023/07/11 08:34:12;;;;;;;7.57;6.32;;;;;;;29.88;33.81;99607.19;5032110;28;20020;-77
2023/07/11 08:36:38;;;;;;;6.57;5.40;;;;;;;30.12;32.93;99640.47;5019671;28;20055;-78
2023/07/11 08:39:04;;;;;;;11.05;5.43;;;;;;;29.97;32.62;99619.78;5033151;28;20033;-78
2023/07/11 08:41:47;;;;;;;7.05;4.88;;;;;;;30.52;32.61;99678.84;5035056;28;20060;-78
2023/07/11 08:44:26;;;;;;;6.97;4.80;;;;;;;29.38;32.12;99484.63;5021163;28;20021;-78
2023/07/11 08:47:04;;;;;;;6.22;5.20;;;;;;;30.67;31.92;99675.81;5030527;28;20136;-76
2023/07/11 08:49:40;;;;;;;6.63;5.03;;;;;;;30.68;31.53;99661.06;5027873;28;20024;-76
2023/07/11 08:52:09;;;;;;;6.03;5.03;;;;;;;30.89;31.58;99678.56;5029469;28;20031;-78
2023/07/11 08:54:44;;;;;;;7.22;4.82;;;;;;;30.99;31.51;99675.56;5032526;28;20083;-76
2023/07/11 08:57:11;;;;;;;10.32;5.32;;;;;;;30.70;31.28;99623.41;5027799;28;20025;-77
2023/07/11 08:59:40;;;;;;;8.05;5.70;;;;;;;31.21;31.12;99669.38;5030742;28;20033;-75
2023/07/11 09:02:23;;;;;;;6.93;5.10;;;;;;;31.34;31.16;99673.13;5034525;28;20108;-77
2023/07/11 09:04:52;;;;;;;11.20;5.40;;;;;;;30.98;31.17;99599.53;5033745;28;20125;-77
2023/07/11 09:07:29;;;;;;;7.55;5.20;;;;;;;31.55;30.42;99666.00;5033917;28;20037;-77
2023/07/11 09:09:56;;;;;;;6.22;4.93;;;;;;;31.62;30.52;99662.84;5034872;28;20021;-76
2023/07/11 09:12:38;;;;;;;9.65;5.65;;;;;;;31.40;30.16;99616.50;5017076;28;20032;-77
2023/07/11 09:15:09;;;;;;;7.75;5.22;;;;;;;31.77;30.16;99659.72;5033822;28;20520;-76
2023/07/11 09:17:53;;;;;;;6.45;5.10;;;;;;;31.76;29.18;99635.47;5018144;28;20033;-76
2023/07/11 09:20:39;;;;;;;5.22;4.72;;;;;;;32.02;29.79;99663.69;5029064;28;20029;-77
2023/07/11 09:23:08;;;;;;;12.98;5.43;;;;;;;32.06;29.23;99655.66;5034691;28;20036;-78
2023/07/11 09:25:42;;;;;;;9.02;6.07;;;;;;;32.05;29.75;99632.19;5033276;28;20200;-79
2023/07/11 09:28:20;;;;;;;7.03;5.18;;;;;;;31.82;29.69;99560.47;5032568;28;20099;-75
2023/07/11 09:30:56;;;;;;;9.98;6.35;;;;;;;32.54;29.45;99658.31;5029992;28;20030;-75
2023/07/11 09:33:23;;;;;;;6.93;5.75;;;;;;;32.72;29.26;99646.28;5032770;28;20033;-77
2023/07/11 09:35:51;;;;;;;7.70;5.57;;;;;;;32.89;28.91;99650.97;5033221;28;20041;-76
2023/07/11 09:38:39;;;;;;;8.25;5.00;;;;;;;33.00;28.75;99638.56;5014679;28;20056;-76
2023/07/11 09:41:21;;;;;;;8.10;5.88;;;;;;;32.99;28.58;99627.94;5031971;28;20045;-76
2023/07/11 09:43:47;;;;;;;6.18;5.00;;;;;;;33.25;27.94;99649.78;5027892;28;20140;-75
2023/07/11 09:46:22;;;;;;;7.43;5.82;;;;;;;32.92;27.53;99578.41;5027139;28;20137;-75
2023/07/11 09:48:53;;;;;;;8.63;5.25;;;;;;;33.11;27.72;99609.72;5035026;28;20101;-77
2023/07/11 09:51:24;;;;;;;6.97;5.60;;;;;;;33.61;28.07;99652.94;5034213;28;20032;-76
2023/07/11 09:53:53;;;;;;;6.20;5.07;;;;;;;33.65;27.59;99618.28;5032175;28;20046;-77
2023/07/11 09:56:19;;;;;;;14.13;6.78;;;;;;;33.99;27.34;99638.44;5030472;28;20419;-75
2023/07/11 09:58:50;;;;;;;6.95;4.78;;;;;;;34.10;27.19;99642.38;5029776;28;20046;-75
2023/07/11 10:01:25;;;;;;;5.90;5.30;;;;;;;34.13;26.99;99635.44;5030527;28;20102;-77
2023/07/11 10:03:54;;;;;;;7.25;5.60;;;;;;;33.96;26.58;99600.75;5029863;28;20037;-75
2023/07/11 10:06:29;;;;;;;7.18;5.50;;;;;;;33.85;26.73;99591.31;5030277;28;20175;-76
2023/07/11 10:08:55;;;;;;;6.90;4.88;;;;;;;33.97;26.40;99580.44;5030674;28;20564;-75
2023/07/11 10:11:21;;;;;;;8.50;5.53;;;;;;;34.37;26.54;99635.66;5031625;28;20029;-76
2023/07/11 10:13:54;;;;;;;7.22;5.07;;;;;;;34.17;26.47;99587.84;5030703;28;20421;-76
2023/07/11 10:16:20;;;;;;;7.18;5.30;;;;;;;34.59;26.72;99621.59;5031636;28;20040;-76
2023/07/11 10:18:45;;;;;;;10.25;5.75;;;;;;;34.69;26.50;99634.09;5029804;28;20442;-78
2023/07/11 10:21:22;;;;;;;5.65;4.80;;;;;;;34.48;25.65;99579.28;5031765;28;20052;-77
2023/07/11 10:23:50;;;;;;;5.65;5.10;;;;;;;34.60;26.55;99586.75;5032080;28;20098;-76
2023/07/11 10:26:25;;;;;;;7.00;5.50;;;;;;;35.14;25.99;99620.47;5031555;28;20048;-77
2023/07/11 10:29:07;;;;;;;7.68;5.22;;;;;;;35.25;25.89;99613.41;5031455;28;20025;-76
2023/07/11 10:31:43;;;;;;;6.70;6.00;;;;;;;35.07;25.81;99564.53;5032699;28;20017;-77
2023/07/11 10:34:15;;;;;;;6.07;5.15;;;;;;;35.40;25.96;99609.22;5030426;28;20170;-77
2023/07/11 10:36:46;;;;;;;8.05;6.55;;;;;;;35.48;25.91;99607.50;5026746;28;20029;-77
2023/07/11 10:39:45;;;;;;;6.50;5.70;;;;;;;35.17;25.74;99553.91;5031748;28;20550;-78
2023/07/11 10:42:37;;;;;;;5.55;5.03;;;;;;;35.60;25.72;99602.00;5017564;28;20411;-77
2023/07/11 10:45:07;;;;;;;8.18;7.38;;;;;;;35.60;25.80;99589.09;4995009;28;20021;-78
2023/07/11 10:47:38;;;;;;;7.15;6.10;;;;;;;35.85;25.66;99597.38;4995079;28;20124;-77
2023/07/11 10:50:11;;;;;;;6.53;5.38;;;;;;;35.87;25.59;99568.41;5027483;28;20105;-76
2023/07/11 10:52:39;;;;;;;5.97;5.43;;;;;;;36.18;25.61;99606.25;5032791;28;20094;-76
2023/07/11 10:55:18;;;;;;;7.38;5.22;;;;;;;36.11;24.97;99591.47;5031941;28;20049;-78
2023/07/11 10:57:52;;;;;;;6.93;6.10;;;;;;;36.20;24.90;99603.16;5032369;28;20058;-77
2023/07/11 11:00:22;;;;;;;9.95;5.55;;;;;;;35.90;24.79;99578.69;5031321;28;20035;-78
2023/07/11 11:03:16;;;;;;;6.78;5.65;;;;;;;36.00;24.90;99579.38;5031316;28;20418;-77
2023/07/11 11:05:55;;;;;;;7.65;6.95;;;;;;;36.22;24.93;99587.09;5030216;28;20530;-77
2023/07/11 11:08:45;;;;;;;10.32;6.57;;;;;;;36.02;24.15;99575.13;5030956;28;20395;-78
2023/07/11 11:11:28;;;;;;;8.40;5.72;;;;;;;36.13;24.37;99591.94;5032139;28;20025;-77
2023/07/11 11:14:09;;;;;;;7.30;6.35;;;;;;;36.30;23.81;99583.44;5031282;28;20025;-77
2023/07/11 11:17:03;;;;;;;6.88;4.90;;;;;;;36.59;24.02;99585.88;5030055;28;20030;-78
2023/07/11 11:19:37;;;;;;;8.45;4.97;;;;;;;36.76;23.79;99565.53;5012215;28;20442;-77
2023/07/11 11:22:27;;;;;;;8.73;5.93;;;;;;;36.40;22.74;99522.44;4994501;28;20048;-77
2023/07/11 11:25:11;;;;;;;5.70;4.60;;;;;;;36.57;22.70;99518.59;5006432;28;20534;-78
2023/07/11 11:27:52;;;;;;;7.85;5.10;;;;;;;37.03;23.11;99568.59;5029903;28;20033;-78
2023/07/11 11:30:38;;;;;;;6.10;5.45;;;;;;;37.09;22.62;99567.16;5030784;28;20033;-77
2023/07/11 11:33:21;;;;;;;11.50;5.22;;;;;;;36.87;22.86;99572.13;5031060;28;20087;-79
2023/07/11 11:36:12;;;;;;;6.25;4.75;;;;;;;36.89;22.85;99563.50;5029728;28;20029;-77
2023/07/11 11:38:38;;;;;;;6.82;6.22;;;;;;;37.18;23.43;99563.13;5030767;28;20026;-77
2023/07/11 11:41:10;;;;;;;7.15;4.88;;;;;;;36.99;23.12;99509.91;5028738;28;20038;-78
2023/07/11 11:43:37;;;;;;;6.22;5.07;;;;;;;37.06;22.66;99513.63;5028680;28;20039;-77
2023/07/11 11:46:06;;;;;;;10.93;5.18;;;;;;;37.33;22.46;99519.44;5031331;28;20061;-76